sensor_id;sensor_type;location;lat;lon;timestamp;pressure;altitude;pressure_sealevel;temperature;humidity
38225;BME280;24025;48.138;11.428;2022-07-23T00:01:06;95567.53;;;24.81;53.30
38225;BME280;24025;48.138;11.428;2022-07-23T00:03:36;95561.47;;;24.77;52.92
38225;BME280;24025;48.138;11.428;2022-07-23T00:06:06;95562.06;;;24.72;52.67
38225;BME280;24025;48.138;11.428;2022-07-23T00:08:37;95571.34;;;24.66;52.67
38225;BME280;24025;48.138;11.428;2022-07-23T00:11:07;95561.31;;;24.53;53.15
38225;BME280;24025;48.138;11.428;2022-07-23T00:13:38;95567.19;;;24.43;53.69
38225;BME280;24025;48.138;11.428;2022-07-23T00:16:09;95571.25;;;24.38;53.75
38225;BME280;24025;48.138;11.428;2022-07-23T00:18:39;95581.00;;;24.39;53.65
38225;BME280;24025;48.138;11.428;2022-07-23T00:21:10;95588.41;;;24.39;53.64
38225;BME280;24025;48.138;11.428;2022-07-23T00:23:40;95589.13;;;24.30;54.02
38225;BME280;24025;48.138;11.428;2022-07-23T00:26:11;95592.88;;;24.23;54.03
38225;BME280;24025;48.138;11.428;2022-07-23T00:28:41;95591.81;;;24.21;54.29
38225;BME280;24025;48.138;11.428;2022-07-23T00:31:11;95593.59;;;24.15;54.51
38225;BME280;24025;48.138;11.428;2022-07-23T00:33:42;95597.53;;;24.14;54.20
38225;BME280;24025;48.138;11.428;2022-07-23T00:36:12;95599.06;;;24.15;54.64
38225;BME280;24025;48.138;11.428;2022-07-23T00:38:43;95610.56;;;24.19;54.86
38225;BME280;24025;48.138;11.428;2022-07-23T00:41:13;95611.66;;;24.21;54.70
38225;BME280;24025;48.138;11.428;2022-07-23T00:43:43;95606.63;;;24.20;54.36
38225;BME280;24025;48.138;11.428;2022-07-23T00:46:21;95610.25;;;24.17;54.49
38225;BME280;24025;48.138;11.428;2022-07-23T00:48:52;95614.78;;;24.11;54.31
38225;BME280;24025;48.138;11.428;2022-07-23T00:51:22;95623.66;;;24.02;54.48
38225;BME280;24025;48.138;11.428;2022-07-23T00:53:53;95632.88;;;23.95;54.65
38225;BME280;24025;48.138;11.428;2022-07-23T00:56:23;95639.22;;;23.92;54.93
38225;BME280;24025;48.138;11.428;2022-07-23T00:58:54;95656.75;;;23.91;54.83
38225;BME280;24025;48.138;11.428;2022-07-23T01:01:25;95681.72;;;23.90;55.10
38225;BME280;24025;48.138;11.428;2022-07-23T01:03:56;95704.84;;;23.85;55.80
38225;BME280;24025;48.138;11.428;2022-07-23T01:06:26;95705.13;;;23.78;56.13
38225;BME280;24025;48.138;11.428;2022-07-23T01:08:57;95730.97;;;23.73;55.90
38225;BME280;24025;48.138;11.428;2022-07-23T01:11:27;95744.56;;;23.73;55.34
38225;BME280;24025;48.138;11.428;2022-07-23T01:13:58;95745.91;;;23.69;55.46
38225;BME280;24025;48.138;11.428;2022-07-23T01:16:28;95777.94;;;23.65;53.54
38225;BME280;24025;48.138;11.428;2022-07-23T01:18:58;95817.47;;;23.57;54.44
38225;BME280;24025;48.138;11.428;2022-07-23T01:21:29;95858.28;;;23.09;54.60
38225;BME280;24025;48.138;11.428;2022-07-23T01:24:01;95885.56;;;21.93;60.59
38225;BME280;24025;48.138;11.428;2022-07-23T01:26:31;95911.59;;;21.26;63.57
38225;BME280;24025;48.138;11.428;2022-07-23T01:29:02;95895.84;;;20.64;65.05
38225;BME280;24025;48.138;11.428;2022-07-23T01:31:33;95908.66;;;20.01;69.20
38225;BME280;24025;48.138;11.428;2022-07-23T01:34:03;95868.84;;;19.55;76.27
38225;BME280;24025;48.138;11.428;2022-07-23T01:36:35;95831.00;;;19.04;77.74
38225;BME280;24025;48.138;11.428;2022-07-23T01:39:06;95813.78;;;18.67;80.60
38225;BME280;24025;48.138;11.428;2022-07-23T01:41:37;95788.91;;;18.49;83.03
38225;BME280;24025;48.138;11.428;2022-07-23T01:44:08;95791.44;;;18.33;84.40
38225;BME280;24025;48.138;11.428;2022-07-23T01:46:39;95793.66;;;18.11;86.24
38225;BME280;24025;48.138;11.428;2022-07-23T01:49:09;95778.25;;;18.08;86.73
38225;BME280;24025;48.138;11.428;2022-07-23T01:51:40;95759.16;;;17.95;87.18
38225;BME280;24025;48.138;11.428;2022-07-23T01:54:32;95744.44;;;18.00;87.18
38225;BME280;24025;48.138;11.428;2022-07-23T01:57:02;95752.09;;;18.05;88.10
38225;BME280;24025;48.138;11.428;2022-07-23T01:59:33;95743.50;;;18.14;86.88
38225;BME280;24025;48.138;11.428;2022-07-23T02:02:03;95753.38;;;18.24;87.12
38225;BME280;24025;48.138;11.428;2022-07-23T02:04:33;95756.00;;;18.31;84.66
38225;BME280;24025;48.138;11.428;2022-07-23T02:07:06;95768.25;;;18.35;83.38
38225;BME280;24025;48.138;11.428;2022-07-23T02:09:37;95755.44;;;18.43;83.62
38225;BME280;24025;48.138;11.428;2022-07-23T02:12:07;95747.38;;;18.39;84.00
38225;BME280;24025;48.138;11.428;2022-07-23T02:14:37;95726.19;;;18.38;82.94
38225;BME280;24025;48.138;11.428;2022-07-23T02:17:08;95711.13;;;18.37;82.94
38225;BME280;24025;48.138;11.428;2022-07-23T02:19:38;95692.38;;;18.53;82.52
38225;BME280;24025;48.138;11.428;2022-07-23T02:22:09;95686.81;;;18.67;82.68
38225;BME280;24025;48.138;11.428;2022-07-23T02:24:39;95681.19;;;18.82;82.84
38225;BME280;24025;48.138;11.428;2022-07-23T02:27:09;95672.38;;;18.98;82.95
38225;BME280;24025;48.138;11.428;2022-07-23T02:29:40;95654.31;;;19.14;82.00
38225;BME280;24025;48.138;11.428;2022-07-23T02:32:10;95649.00;;;19.31;80.72
38225;BME280;24025;48.138;11.428;2022-07-23T02:34:40;95668.91;;;19.40;80.45
38225;BME280;24025;48.138;11.428;2022-07-23T02:37:11;95672.94;;;19.32;79.09
38225;BME280;24025;48.138;11.428;2022-07-23T02:39:41;95661.63;;;19.37;75.98
38225;BME280;24025;48.138;11.428;2022-07-23T02:42:12;95654.16;;;19.45;79.47
38225;BME280;24025;48.138;11.428;2022-07-23T02:44:42;95664.00;;;19.55;78.28
38225;BME280;24025;48.138;11.428;2022-07-23T02:47:12;95676.91;;;19.67;78.45
38225;BME280;24025;48.138;11.428;2022-07-23T02:49:43;95700.38;;;19.74;77.43
38225;BME280;24025;48.138;11.428;2022-07-23T02:52:13;95721.38;;;19.86;78.37
38225;BME280;24025;48.138;11.428;2022-07-23T02:54:44;95747.88;;;19.95;78.14
38225;BME280;24025;48.138;11.428;2022-07-23T02:57:14;95801.69;;;19.93;77.69
38225;BME280;24025;48.138;11.428;2022-07-23T02:59:45;95805.06;;;19.77;77.56
38225;BME280;24025;48.138;11.428;2022-07-23T03:02:15;95777.56;;;19.59;75.98
38225;BME280;24025;48.138;11.428;2022-07-23T03:04:45;95778.34;;;19.59;76.74
38225;BME280;24025;48.138;11.428;2022-07-23T03:07:17;95779.38;;;19.65;78.81
38225;BME280;24025;48.138;11.428;2022-07-23T03:09:47;95772.31;;;19.71;79.10
38225;BME280;24025;48.138;11.428;2022-07-23T03:12:18;95764.88;;;19.75;79.55
38225;BME280;24025;48.138;11.428;2022-07-23T03:14:48;95748.22;;;19.77;78.39
38225;BME280;24025;48.138;11.428;2022-07-23T03:17:19;95747.00;;;19.82;78.02
38225;BME280;24025;48.138;11.428;2022-07-23T03:19:49;95748.53;;;19.83;78.60
38225;BME280;24025;48.138;11.428;2022-07-23T03:22:19;95743.03;;;19.86;78.02
38225;BME280;24025;48.138;11.428;2022-07-23T03:24:50;95736.72;;;19.93;78.94
38225;BME280;24025;48.138;11.428;2022-07-23T03:27:28;95705.84;;;19.90;79.68
38225;BME280;24025;48.138;11.428;2022-07-23T03:29:59;95675.31;;;19.90;80.32
38225;BME280;24025;48.138;11.428;2022-07-23T03:32:30;95638.59;;;19.89;80.13
38225;BME280;24025;48.138;11.428;2022-07-23T03:35:01;95602.38;;;19.83;80.03
38225;BME280;24025;48.138;11.428;2022-07-23T03:37:32;95606.75;;;19.76;81.37
38225;BME280;24025;48.138;11.428;2022-07-23T03:40:02;95636.78;;;19.82;81.42
38225;BME280;24025;48.138;11.428;2022-07-23T03:42:33;95662.91;;;19.72;79.99
38225;BME280;24025;48.138;11.428;2022-07-23T03:45:04;95684.78;;;19.62;80.36
38225;BME280;24025;48.138;11.428;2022-07-23T03:47:35;95680.72;;;19.70;80.27
38225;BME280;24025;48.138;11.428;2022-07-23T03:50:06;95672.53;;;19.73;80.45
38225;BME280;24025;48.138;11.428;2022-07-23T03:52:36;95661.22;;;19.78;82.02
38225;BME280;24025;48.138;11.428;2022-07-23T03:55:07;95657.69;;;19.82;81.46
38225;BME280;24025;48.138;11.428;2022-07-23T03:57:37;95664.53;;;19.86;80.63
38225;BME280;24025;48.138;11.428;2022-07-23T04:00:08;95664.09;;;19.88;78.68
38225;BME280;24025;48.138;11.428;2022-07-23T04:02:40;95661.63;;;19.97;79.60
38225;BME280;24025;48.138;11.428;2022-07-23T04:05:10;95663.81;;;20.02;78.76
38225;BME280;24025;48.138;11.428;2022-07-23T04:07:40;95652.56;;;20.03;78.25
38225;BME280;24025;48.138;11.428;2022-07-23T04:10:11;95655.63;;;20.05;78.23
38225;BME280;24025;48.138;11.428;2022-07-23T04:12:41;95650.88;;;20.09;79.51
38225;BME280;24025;48.138;11.428;2022-07-23T04:15:12;95648.19;;;20.09;80.53
38225;BME280;24025;48.138;11.428;2022-07-23T04:17:42;95639.97;;;20.13;79.98
38225;BME280;24025;48.138;11.428;2022-07-23T04:20:14;95621.44;;;20.12;80.63
38225;BME280;24025;48.138;11.428;2022-07-23T04:22:44;95617.47;;;20.16;80.08
38225;BME280;24025;48.138;11.428;2022-07-23T04:25:14;95618.66;;;20.15;79.89
38225;BME280;24025;48.138;11.428;2022-07-23T04:27:46;95613.59;;;20.17;80.24
38225;BME280;24025;48.138;11.428;2022-07-23T04:30:17;95613.50;;;20.21;80.21
38225;BME280;24025;48.138;11.428;2022-07-23T04:32:47;95618.91;;;20.21;79.52
38225;BME280;24025;48.138;11.428;2022-07-23T04:35:18;95621.88;;;20.26;79.25
38225;BME280;24025;48.138;11.428;2022-07-23T04:37:48;95617.50;;;20.32;80.09
38225;BME280;24025;48.138;11.428;2022-07-23T04:40:19;95617.88;;;20.31;79.22
38225;BME280;24025;48.138;11.428;2022-07-23T04:42:49;95619.78;;;20.34;78.37
38225;BME280;24025;48.138;11.428;2022-07-23T04:45:19;95622.81;;;20.36;79.31
38225;BME280;24025;48.138;11.428;2022-07-23T04:47:50;95620.44;;;20.38;79.80
38225;BME280;24025;48.138;11.428;2022-07-23T04:50:20;95616.91;;;20.41;80.29
38225;BME280;24025;48.138;11.428;2022-07-23T04:52:51;95607.19;;;20.44;79.22
38225;BME280;24025;48.138;11.428;2022-07-23T04:55:22;95604.81;;;20.46;79.09
38225;BME280;24025;48.138;11.428;2022-07-23T04:57:52;95607.09;;;20.47;79.74
38225;BME280;24025;48.138;11.428;2022-07-23T05:00:22;95613.69;;;20.46;76.77
38225;BME280;24025;48.138;11.428;2022-07-23T05:02:53;95611.41;;;20.45;76.25
38225;BME280;24025;48.138;11.428;2022-07-23T05:05:23;95606.75;;;20.45;78.21
38225;BME280;24025;48.138;11.428;2022-07-23T05:07:54;95602.44;;;20.48;78.86
38225;BME280;24025;48.138;11.428;2022-07-23T05:10:24;95597.50;;;20.43;79.17
38225;BME280;24025;48.138;11.428;2022-07-23T05:12:54;95587.47;;;20.43;78.73
38225;BME280;24025;48.138;11.428;2022-07-23T05:15:25;95596.81;;;20.38;78.78
38225;BME280;24025;48.138;11.428;2022-07-23T05:17:55;95598.34;;;20.40;78.74
38225;BME280;24025;48.138;11.428;2022-07-23T05:20:26;95593.78;;;20.36;78.57
38225;BME280;24025;48.138;11.428;2022-07-23T05:22:56;95608.94;;;20.34;78.27
38225;BME280;24025;48.138;11.428;2022-07-23T05:25:27;95617.06;;;20.34;76.69
38225;BME280;24025;48.138;11.428;2022-07-23T05:27:57;95618.16;;;20.36;76.68
38225;BME280;24025;48.138;11.428;2022-07-23T05:30:28;95616.53;;;20.39;76.58
38225;BME280;24025;48.138;11.428;2022-07-23T05:32:58;95613.75;;;20.43;77.80
38225;BME280;24025;48.138;11.428;2022-07-23T05:35:29;95615.31;;;20.44;78.58
38225;BME280;24025;48.138;11.428;2022-07-23T05:37:59;95612.19;;;20.45;77.89
38225;BME280;24025;48.138;11.428;2022-07-23T05:40:29;95624.19;;;20.44;76.97
38225;BME280;24025;48.138;11.428;2022-07-23T05:43:00;95628.50;;;20.42;75.27
38225;BME280;24025;48.138;11.428;2022-07-23T05:45:30;95643.63;;;20.39;74.70
38225;BME280;24025;48.138;11.428;2022-07-23T05:48:01;95654.13;;;20.37;75.45
38225;BME280;24025;48.138;11.428;2022-07-23T05:50:31;95660.72;;;20.36;74.91
38225;BME280;24025;48.138;11.428;2022-07-23T05:53:02;95668.09;;;20.35;75.54
38225;BME280;24025;48.138;11.428;2022-07-23T05:55:32;95660.81;;;20.32;74.76
38225;BME280;24025;48.138;11.428;2022-07-23T05:58:03;95660.06;;;20.32;74.18
38225;BME280;24025;48.138;11.428;2022-07-23T06:00:33;95653.03;;;20.34;73.77
38225;BME280;24025;48.138;11.428;2022-07-23T06:03:03;95650.66;;;20.36;74.42
38225;BME280;24025;48.138;11.428;2022-07-23T06:05:34;95650.31;;;20.34;75.25
38225;BME280;24025;48.138;11.428;2022-07-23T06:08:04;95639.41;;;20.38;76.12
38225;BME280;24025;48.138;11.428;2022-07-23T06:10:35;95630.84;;;20.40;76.91
38225;BME280;24025;48.138;11.428;2022-07-23T06:13:05;95618.06;;;20.40;77.37
38225;BME280;24025;48.138;11.428;2022-07-23T06:15:36;95605.56;;;20.46;78.70
38225;BME280;24025;48.138;11.428;2022-07-23T06:18:06;95598.03;;;20.54;78.10
38225;BME280;24025;48.138;11.428;2022-07-23T06:20:37;95590.91;;;20.60;77.47
38225;BME280;24025;48.138;11.428;2022-07-23T06:23:07;95590.38;;;20.65;77.62
38225;BME280;24025;48.138;11.428;2022-07-23T06:25:38;95598.00;;;20.70;76.84
38225;BME280;24025;48.138;11.428;2022-07-23T06:28:08;95603.75;;;20.72;77.36
38225;BME280;24025;48.138;11.428;2022-07-23T06:30:39;95619.53;;;20.77;76.84
38225;BME280;24025;48.138;11.428;2022-07-23T06:33:09;95631.88;;;20.78;76.10
38225;BME280;24025;48.138;11.428;2022-07-23T06:35:41;95679.56;;;20.76;74.06
38225;BME280;24025;48.138;11.428;2022-07-23T06:38:11;95696.41;;;20.67;73.87
38225;BME280;24025;48.138;11.428;2022-07-23T06:40:43;95688.81;;;20.62;74.60
38225;BME280;24025;48.138;11.428;2022-07-23T06:43:15;95692.69;;;20.61;74.26
38225;BME280;24025;48.138;11.428;2022-07-23T06:45:45;95705.91;;;20.59;74.95
38225;BME280;24025;48.138;11.428;2022-07-23T06:48:15;95705.38;;;20.48;74.06
38225;BME280;24025;48.138;11.428;2022-07-23T06:50:46;95704.13;;;20.52;74.92
38225;BME280;24025;48.138;11.428;2022-07-23T06:53:16;95706.06;;;20.52;74.80
38225;BME280;24025;48.138;11.428;2022-07-23T06:55:47;95705.31;;;20.51;74.65
38225;BME280;24025;48.138;11.428;2022-07-23T06:58:17;95714.13;;;20.55;75.00
38225;BME280;24025;48.138;11.428;2022-07-23T07:00:49;95715.47;;;20.47;74.28
38225;BME280;24025;48.138;11.428;2022-07-23T07:03:19;95707.31;;;20.47;76.06
38225;BME280;24025;48.138;11.428;2022-07-23T07:05:50;95698.94;;;20.42;76.19
38225;BME280;24025;48.138;11.428;2022-07-23T07:08:20;95696.28;;;20.38;75.93
38225;BME280;24025;48.138;11.428;2022-07-23T07:10:51;95700.94;;;20.37;75.60
38225;BME280;24025;48.138;11.428;2022-07-23T07:13:21;95693.03;;;20.47;75.58
38225;BME280;24025;48.138;11.428;2022-07-23T07:15:51;95692.44;;;20.55;75.61
38225;BME280;24025;48.138;11.428;2022-07-23T07:18:22;95694.56;;;20.64;76.20
38225;BME280;24025;48.138;11.428;2022-07-23T07:20:52;95690.06;;;20.74;76.42
38225;BME280;24025;48.138;11.428;2022-07-23T07:23:23;95692.19;;;20.82;76.11
38225;BME280;24025;48.138;11.428;2022-07-23T07:25:54;95695.91;;;20.88;76.15
38225;BME280;24025;48.138;11.428;2022-07-23T07:28:24;95707.19;;;20.87;74.26
38225;BME280;24025;48.138;11.428;2022-07-23T07:30:54;95713.44;;;20.84;74.83
38225;BME280;24025;48.138;11.428;2022-07-23T07:33:25;95719.28;;;20.82;75.31
38225;BME280;24025;48.138;11.428;2022-07-23T07:35:55;95720.81;;;20.83;75.28
38225;BME280;24025;48.138;11.428;2022-07-23T07:38:26;95708.88;;;20.81;75.79
38225;BME280;24025;48.138;11.428;2022-07-23T07:40:56;95716.91;;;20.84;76.01
38225;BME280;24025;48.138;11.428;2022-07-23T07:43:27;95723.03;;;20.88;75.31
38225;BME280;24025;48.138;11.428;2022-07-23T07:45:57;95730.81;;;20.86;75.39
38225;BME280;24025;48.138;11.428;2022-07-23T07:48:27;95739.28;;;20.88;75.38
38225;BME280;24025;48.138;11.428;2022-07-23T07:50:58;95737.44;;;20.85;75.45
38225;BME280;24025;48.138;11.428;2022-07-23T07:53:28;95734.47;;;20.80;75.22
38225;BME280;24025;48.138;11.428;2022-07-23T07:55:59;95735.38;;;20.73;75.87
38225;BME280;24025;48.138;11.428;2022-07-23T07:58:29;95729.28;;;20.69;75.38
38225;BME280;24025;48.138;11.428;2022-07-23T08:01:00;95721.59;;;20.68;76.32
38225;BME280;24025;48.138;11.428;2022-07-23T08:03:30;95718.34;;;20.73;76.07
38225;BME280;24025;48.138;11.428;2022-07-23T08:06:01;95715.06;;;20.81;76.85
38225;BME280;24025;48.138;11.428;2022-07-23T08:08:31;95724.88;;;20.91;76.26
38225;BME280;24025;48.138;11.428;2022-07-23T08:11:02;95731.22;;;21.01;75.10
38225;BME280;24025;48.138;11.428;2022-07-23T08:13:32;95725.03;;;21.17;75.19
38225;BME280;24025;48.138;11.428;2022-07-23T08:16:03;95727.31;;;21.35;74.17
38225;BME280;24025;48.138;11.428;2022-07-23T08:18:33;95726.94;;;21.49;72.79
38225;BME280;24025;48.138;11.428;2022-07-23T08:21:04;95723.94;;;21.60;72.74
38225;BME280;24025;48.138;11.428;2022-07-23T08:23:35;95724.59;;;21.64;71.88
38225;BME280;24025;48.138;11.428;2022-07-23T08:26:06;95716.59;;;21.73;71.27
38225;BME280;24025;48.138;11.428;2022-07-23T08:28:37;95711.84;;;21.90;71.10
38225;BME280;24025;48.138;11.428;2022-07-23T08:31:07;95704.50;;;22.03;70.47
38225;BME280;24025;48.138;11.428;2022-07-23T08:33:37;95699.84;;;22.16;70.01
38225;BME280;24025;48.138;11.428;2022-07-23T08:36:08;95703.81;;;22.28;72.73
38225;BME280;24025;48.138;11.428;2022-07-23T08:38:38;95703.34;;;22.42;69.33
38225;BME280;24025;48.138;11.428;2022-07-23T08:41:09;95712.16;;;22.59;68.85
38225;BME280;24025;48.138;11.428;2022-07-23T08:43:40;95714.00;;;22.75;67.80
38225;BME280;24025;48.138;11.428;2022-07-23T08:46:12;95717.91;;;22.86;66.40
38225;BME280;24025;48.138;11.428;2022-07-23T08:48:43;95717.69;;;22.94;66.69
38225;BME280;24025;48.138;11.428;2022-07-23T08:51:17;95727.19;;;22.89;66.27
38225;BME280;24025;48.138;11.428;2022-07-23T08:53:47;95745.88;;;22.74;66.26
38225;BME280;24025;48.138;11.428;2022-07-23T08:56:18;95773.19;;;22.71;67.92
38225;BME280;24025;48.138;11.428;2022-07-23T08:58:48;95778.47;;;22.49;67.28
38225;BME280;24025;48.138;11.428;2022-07-23T09:01:19;95776.75;;;22.55;68.00
38225;BME280;24025;48.138;11.428;2022-07-23T09:03:49;95761.53;;;22.57;67.96
38225;BME280;24025;48.138;11.428;2022-07-23T09:06:20;95766.31;;;22.66;67.24
38225;BME280;24025;48.138;11.428;2022-07-23T09:08:50;95764.78;;;22.78;67.59
38225;BME280;24025;48.138;11.428;2022-07-23T09:11:20;95764.81;;;22.91;66.01
38225;BME280;24025;48.138;11.428;2022-07-23T09:13:52;95772.00;;;22.97;66.16
38225;BME280;24025;48.138;11.428;2022-07-23T09:16:29;95775.34;;;23.01;65.65
38225;BME280;24025;48.138;11.428;2022-07-23T09:19:02;95781.22;;;23.12;65.85
38225;BME280;24025;48.138;11.428;2022-07-23T09:21:35;95774.91;;;23.15;65.45
38225;BME280;24025;48.138;11.428;2022-07-23T09:26:39;95775.03;;;23.59;63.97
38225;BME280;24025;48.138;11.428;2022-07-23T09:29:24;95773.22;;;23.78;63.54
38225;BME280;24025;48.138;11.428;2022-07-23T09:31:59;95779.88;;;23.99;61.60
38225;BME280;24025;48.138;11.428;2022-07-23T09:34:31;95776.56;;;24.26;62.04
38225;BME280;24025;48.138;11.428;2022-07-23T09:39:41;95765.44;;;24.73;58.85
38225;BME280;24025;48.138;11.428;2022-07-23T09:42:23;95776.19;;;25.08;57.66
38225;BME280;24025;48.138;11.428;2022-07-23T09:44:56;95772.63;;;25.29;54.34
38225;BME280;24025;48.138;11.428;2022-07-23T09:47:29;95778.84;;;25.39;52.68
38225;BME280;24025;48.138;11.428;2022-07-23T09:50:04;95771.25;;;25.43;52.94
38225;BME280;24025;48.138;11.428;2022-07-23T09:52:43;95776.25;;;25.35;52.15
38225;BME280;24025;48.138;11.428;2022-07-23T09:55:18;95764.56;;;25.26;51.70
38225;BME280;24025;48.138;11.428;2022-07-23T09:57:48;95769.88;;;25.20;52.39
38225;BME280;24025;48.138;11.428;2022-07-23T10:00:24;95762.72;;;25.23;52.81
38225;BME280;24025;48.138;11.428;2022-07-23T10:02:56;95762.91;;;25.37;52.08
38225;BME280;24025;48.138;11.428;2022-07-23T10:05:29;95759.84;;;25.35;50.85
38225;BME280;24025;48.138;11.428;2022-07-23T10:08:01;95764.13;;;25.36;51.11
38225;BME280;24025;48.138;11.428;2022-07-23T10:10:32;95758.97;;;25.38;50.46
38225;BME280;24025;48.138;11.428;2022-07-23T10:13:03;95760.03;;;25.41;51.23
38225;BME280;24025;48.138;11.428;2022-07-23T10:15:53;95751.06;;;25.40;50.83
38225;BME280;24025;48.138;11.428;2022-07-23T10:18:24;95745.50;;;25.62;50.23
38225;BME280;24025;48.138;11.428;2022-07-23T10:20:55;95743.34;;;25.94;48.20
38225;BME280;24025;48.138;11.428;2022-07-23T10:23:41;95743.28;;;26.21;47.30
38225;BME280;24025;48.138;11.428;2022-07-23T10:26:24;95748.84;;;26.54;47.31
38225;BME280;24025;48.138;11.428;2022-07-23T10:29:18;95744.78;;;26.83;45.73
38225;BME280;24025;48.138;11.428;2022-07-23T10:32:02;95735.34;;;27.17;45.52
38225;BME280;24025;48.138;11.428;2022-07-23T10:37:23;95746.06;;;27.30;43.49
38225;BME280;24025;48.138;11.428;2022-07-23T10:40:18;95732.00;;;27.37;43.42
38225;BME280;24025;48.138;11.428;2022-07-23T10:42:51;95730.34;;;27.54;43.61
38225;BME280;24025;48.138;11.428;2022-07-23T10:48:19;95731.72;;;27.11;43.71
38225;BME280;24025;48.138;11.428;2022-07-23T10:51:11;95734.91;;;27.09;44.02
38225;BME280;24025;48.138;11.428;2022-07-23T10:53:59;95731.72;;;27.11;44.43
38225;BME280;24025;48.138;11.428;2022-07-23T10:57:09;95728.00;;;27.23;43.92
38225;BME280;24025;48.138;11.428;2022-07-23T11:02:43;95722.06;;;26.92;44.93
38225;BME280;24025;48.138;11.428;2022-07-23T11:05:19;95721.22;;;26.76;45.03
38225;BME280;24025;48.138;11.428;2022-07-23T11:10:34;95716.78;;;26.55;45.29
38225;BME280;24025;48.138;11.428;2022-07-23T11:18:59;95717.44;;;26.32;45.73
38225;BME280;24025;48.138;11.428;2022-07-23T11:21:40;95729.53;;;26.07;46.33
38225;BME280;24025;48.138;11.428;2022-07-23T11:24:18;95724.50;;;25.96;45.99
38225;BME280;24025;48.138;11.428;2022-07-23T11:26:58;95726.03;;;25.97;46.13
38225;BME280;24025;48.138;11.428;2022-07-23T11:32:24;95733.66;;;25.75;46.81
38225;BME280;24025;48.138;11.428;2022-07-23T11:34:55;95728.50;;;25.77;47.27
38225;BME280;24025;48.138;11.428;2022-07-23T11:37:33;95733.03;;;25.61;47.87
38225;BME280;24025;48.138;11.428;2022-07-23T11:40:13;95726.50;;;25.59;48.22
38225;BME280;24025;48.138;11.428;2022-07-23T11:43:02;95725.44;;;25.47;48.78
38225;BME280;24025;48.138;11.428;2022-07-23T11:45:38;95729.53;;;25.42;48.81
38225;BME280;24025;48.138;11.428;2022-07-23T11:48:15;95727.25;;;25.41;48.98
38225;BME280;24025;48.138;11.428;2022-07-23T11:50:46;95739.56;;;25.27;49.63
38225;BME280;24025;48.138;11.428;2022-07-23T11:53:27;95729.69;;;25.21;50.10
38225;BME280;24025;48.138;11.428;2022-07-23T11:56:07;95729.22;;;25.22;49.88
38225;BME280;24025;48.138;11.428;2022-07-23T11:58:39;95728.16;;;25.20;49.40
38225;BME280;24025;48.138;11.428;2022-07-23T12:01:09;95724.22;;;25.11;49.61
38225;BME280;24025;48.138;11.428;2022-07-23T12:03:51;95720.53;;;25.05;49.35
38225;BME280;24025;48.138;11.428;2022-07-23T12:06:21;95725.69;;;25.03;49.53
38225;BME280;24025;48.138;11.428;2022-07-23T12:08:52;95714.63;;;25.07;49.94
38225;BME280;24025;48.138;11.428;2022-07-23T12:11:22;95723.41;;;25.02;50.31
38225;BME280;24025;48.138;11.428;2022-07-23T12:13:57;95720.53;;;25.05;50.36
38225;BME280;24025;48.138;11.428;2022-07-23T12:16:27;95713.69;;;25.01;50.38
38225;BME280;24025;48.138;11.428;2022-07-23T12:18:58;95722.31;;;24.99;50.96
38225;BME280;24025;48.138;11.428;2022-07-23T12:21:28;95722.78;;;24.98;51.13
38225;BME280;24025;48.138;11.428;2022-07-23T12:24:08;95715.66;;;25.00;50.89
38225;BME280;24025;48.138;11.428;2022-07-23T12:26:38;95711.09;;;24.97;51.20
38225;BME280;24025;48.138;11.428;2022-07-23T12:29:09;95705.38;;;25.04;51.11
38225;BME280;24025;48.138;11.428;2022-07-23T12:31:39;95714.34;;;25.05;51.05
38225;BME280;24025;48.138;11.428;2022-07-23T12:34:14;95711.84;;;24.98;51.08
38225;BME280;24025;48.138;11.428;2022-07-23T12:36:45;95717.94;;;24.93;51.01
38225;BME280;24025;48.138;11.428;2022-07-23T12:39:32;95719.16;;;24.92;51.03
38225;BME280;24025;48.138;11.428;2022-07-23T12:42:10;95712.91;;;24.91;51.07
38225;BME280;24025;48.138;11.428;2022-07-23T12:44:41;95720.69;;;25.02;51.51
38225;BME280;24025;48.138;11.428;2022-07-23T12:47:11;95719.34;;;25.16;50.73
38225;BME280;24025;48.138;11.428;2022-07-23T12:49:42;95722.72;;;25.29;50.83
38225;BME280;24025;48.138;11.428;2022-07-23T12:52:16;95725.56;;;25.34;50.63
38225;BME280;24025;48.138;11.428;2022-07-23T12:54:47;95720.75;;;25.38;50.40
38225;BME280;24025;48.138;11.428;2022-07-23T12:57:17;95720.75;;;25.48;50.41
38225;BME280;24025;48.138;11.428;2022-07-23T12:59:47;95717.38;;;25.34;50.80
38225;BME280;24025;48.138;11.428;2022-07-23T13:02:18;95723.59;;;25.35;50.81
38225;BME280;24025;48.138;11.428;2022-07-23T13:04:48;95719.34;;;25.16;50.87
38225;BME280;24025;48.138;11.428;2022-07-23T13:07:19;95721.94;;;25.19;51.37
38225;BME280;24025;48.138;11.428;2022-07-23T13:09:50;95721.63;;;25.17;51.23
38225;BME280;24025;48.138;11.428;2022-07-23T13:12:20;95719.34;;;25.06;51.60
38225;BME280;24025;48.138;11.428;2022-07-23T13:14:50;95727.63;;;24.94;52.38
38225;BME280;24025;48.138;11.428;2022-07-23T13:17:21;95727.88;;;24.77;52.66
38225;BME280;24025;48.138;11.428;2022-07-23T13:19:51;95731.38;;;24.78;52.53
38225;BME280;24025;48.138;11.428;2022-07-23T13:22:22;95727.59;;;24.75;52.46
38225;BME280;24025;48.138;11.428;2022-07-23T13:24:52;95728.50;;;24.81;52.38
38225;BME280;24025;48.138;11.428;2022-07-23T13:27:22;95729.16;;;24.95;52.92
38225;BME280;24025;48.138;11.428;2022-07-23T13:29:53;95723.47;;;25.20;51.92
38225;BME280;24025;48.138;11.428;2022-07-23T13:32:23;95715.44;;;25.53;51.18
38225;BME280;24025;48.138;11.428;2022-07-23T13:34:53;95714.97;;;25.91;50.29
38225;BME280;24025;48.138;11.428;2022-07-23T13:37:24;95712.59;;;26.26;49.15
38225;BME280;24025;48.138;11.428;2022-07-23T13:39:54;95717.59;;;26.37;49.10